• Join FlightAware (Why Join?)
  • Login
  • US Flag 
03:14AM EDT


 

Airport Tracker/Info


-or-


 

Live Flight TrackerFlight Track Log ✈ TMC890 ✈ 22-Jul-2013 ✈ KTEB - KMDW

Flight Track Log - Related Links

Times and Time Zones

All times are in EDT time to prevent confusion due to time zone crossing. See the TMC890 flight status page for this flight to view local times or setup timezone preferences in your user account.

Time Position Orientation Groundspeed Altitude Reporting Facility
EDT Latitude Longitude Course Direction KTS MPH feet Rate Location/Type
06:38AM 40.8833 -74.0500 346° North 195 224 1,100  Level New York TRACON
06:39AM 40.9333 -74.0667 346° North 239 275 2,100 1,740 Climbing New York TRACON
06:40AM 40.9333 -74.1500 270° West 237 273 4,500 2,760 Climbing New York TRACON
06:41AM 40.9167 -74.2500 258° West 260 299 7,400 2,220 Climbing New York TRACON
06:42AM 40.9333 -74.3333 285° West 262 302 9,200 1,440 Climbing New York TRACON
06:44AM 40.9233 -74.5058 266° West 287 330 11,300 1,740 Climbing New York Center
06:45AM 40.9222 -74.6103 269° West 312 359 13,800 2,640 Climbing New York Center
06:46AM 40.9203 -74.7308 269° West 306 352 16,700 1,560 Climbing New York Center
06:47AM 40.9211 -74.8297 271° West 306 352 17,000 120 Climbing New York Center
06:48AM 40.9192 -74.9394 269° West 301 346 17,000 540 Level New York Center
06:49AM 40.9189 -75.0631 270° West 307 353 18,100 1,320 Climbing New York Center
06:50AM 40.9150 -75.1700 267° West 317 365 19,700 1,680 Climbing New York Center
06:51AM 40.8919 -75.2892 256° West 323 372 21,500 1,620 Climbing New York Center
06:52AM 40.8644 -75.4081 253° West 334 384 22,900 1,320 Climbing New York Center
06:53AM 40.8342 -75.5350 253° West 345 397 24,200 1,260 Climbing New York Center
06:54AM 40.8042 -75.6617 253° West 360 414 25,500 1,380 Climbing New York Center
06:55AM 40.7758 -75.7914 254° West 365 420 27,100 1,500 Climbing New York Center
06:56AM 40.7411 -75.9175 250° West 370 426 28,600 1,260 Climbing New York Center
06:57AM 40.7103 -76.0494 253° West 375 432 29,600 1,020 Climbing New York Center
06:58AM 40.6814 -76.1814 254° West 375 432 30,700 1,260 Climbing New York Center
06:59AM 40.6753 -76.3147 267° West 375 432 32,200 1,320 Climbing New York Center
07:00AM 40.6942 -76.4450 281° West 364 419 33,500 1,140 Climbing New York Center
07:01AM 40.7131 -76.5700 281° West 364 419 34,500 900 Climbing New York Center
07:02AM 40.7336 -76.7003 282° West 364 419 35,300 720 Climbing New York Center
07:03AM 40.7500 -76.8306 279° West 364 419 36,000 840 Climbing New York Center
07:04AM 40.7683 -76.9583 281° West 364 419 37,000 960 Climbing New York Center
07:05AM 40.7889 -77.0836 282° West 358 412 37,900 840 Climbing New York Center
07:06AM 40.8053 -77.2056 280° West 352 405 38,800 720 Climbing New York Center
07:07AM 40.8233 -77.3308 281° West 352 405 39,400 540 Climbing New York Center
07:08AM 40.8431 -77.4617 281° West 347 399 39,900 120 Climbing New York Center
07:10AM 40.8828 -77.7569 280° West 354 407 40,000  Climbing Cleveland Center
07:11AM 40.9006 -77.8853 280° West 354 407 40,000  Level Cleveland Center
07:12AM 40.9181 -78.0167 280° West 354 407 40,000  Level Cleveland Center
07:13AM 40.9336 -78.1506 279° West 361 415 40,000 -240 Level Cleveland Center
07:14AM 40.9553 -78.2983 281° West 371 427 39,600 -660 Descending Cleveland Center
07:15AM 40.9725 -78.4353 280° West 376 433 38,700 -840 Descending Cleveland Center
07:16AM 40.9875 -78.5750 278° West 376 433 38,000 -360 Descending Cleveland Center
07:17AM 41.0044 -78.7122 279° West 376 433 38,000  Level Cleveland Center
07:18AM 41.0214 -78.8464 280° West 381 438 38,000  Level Cleveland Center
07:19AM 41.0378 -78.9836 279° West 381 438 38,000  Level Cleveland Center
07:20AM 41.0522 -79.1211 278° West 381 438 38,000  Level Cleveland Center
07:21AM 41.0686 -79.2611 279° West 389 448 38,000  Level Cleveland Center
07:22AM 41.0847 -79.3986 279° West 389 448 38,000  Level Cleveland Center
07:23AM 41.0983 -79.5361 278° West 389 448 38,000  Level Cleveland Center
07:24AM 41.1142 -79.6708 279° West 389 448 38,000  Level Cleveland Center
07:25AM 41.1278 -79.8086 278° West 389 448 38,000  Level Cleveland Center
07:26AM 41.1411 -79.9381 278° West 389 448 38,000  Level Cleveland Center
07:27AM 41.1583 -80.0867 279° West 384 442 38,000  Level Cleveland Center
07:28AM 41.1736 -80.2244 278° West 384 442 38,000  Level Cleveland Center
07:29AM 41.1822 -80.3347 276° West 384 442 38,000  Level Cleveland Center
07:30AM 41.1553 -80.4811 256° West 379 436 38,000  Level Cleveland Center
07:31AM 41.1303 -80.6081 255° West 368 423 38,000  Level Cleveland Center
07:32AM 41.1011 -80.7375 253° West 368 423 38,000  Level Cleveland Center
07:33AM 41.0717 -80.8642 253° West 363 418 38,000  Level Cleveland Center
07:34AM 41.0419 -80.9933 253° West 363 418 38,000  Level Cleveland Center
07:35AM 41.0058 -81.1389 252° West 369 425 38,000  Level Cleveland Center
07:36AM 40.9739 -81.2706 252° West 374 430 38,000  Level Cleveland Center
07:37AM 40.9461 -81.3994 254° West 374 430 38,000  Level Cleveland Center
07:38AM 40.9136 -81.5311 252° West 374 430 38,000  Level Cleveland Center
07:39AM 40.8856 -81.6486 253° West 380 437 38,000  Level Cleveland Center
07:40AM 40.8531 -81.7828 252° West 380 437 38,000  Level Cleveland Center
07:41AM 40.8222 -81.9139 253° West 380 437 38,000  Level Cleveland Center
07:42AM 40.7917 -82.0422 253° West 380 437 38,000  Level Cleveland Center
07:43AM 40.7586 -82.1758 252° West 380 437 38,000  Level Cleveland Center
07:44AM 40.7253 -82.3175 253° West 380 437 38,000  Level Cleveland Center
07:45AM 40.7128 -82.3739 254° West 374 430 38,000  Level Indianapolis Center
07:46AM 40.6800 -82.5047 252° West 373 429 38,000  Level Indianapolis Center
07:47AM 40.6478 -82.6358 252° West 373 429 38,000  Level Indianapolis Center
07:48AM 40.6153 -82.7661 252° West 372 428 38,000  Level Indianapolis Center
07:49AM 40.5817 -82.8975 251° West 375 432 38,000  Level Indianapolis Center
07:50AM 40.5481 -83.0322 252° West 384 442 38,000  Level Indianapolis Center
07:51AM 40.5128 -83.1842 253° West 379 436 38,000  Level Indianapolis Center
07:52AM 40.5208 -83.3275 274° West 393 452 38,000  Level Indianapolis Center
07:53AM 40.5564 -83.4647 289° West 396 456 38,000  Level Indianapolis Center
07:54AM 40.5908 -83.6022 288° West 394 453 38,000  Level Indianapolis Center
07:55AM 40.6250 -83.7389 288° West 391 450 38,000 -540 Level Indianapolis Center
07:56AM 40.6603 -83.8764 289° West 395 455 36,900 -1,620 Descending Indianapolis Center
07:57AM 40.6964 -84.0225 288° West 413 475 34,800 -2,100 Descending Indianapolis Center
07:58AM 40.7317 -84.1653 288° West 408 470 32,600 -2,040 Descending Indianapolis Center
07:59AM 40.7675 -84.3094 288° West 409 471 30,600 -1,320 Descending Indianapolis Center
08:00AM 40.8028 -84.4561 288° West 415 478 30,000 -300 Descending Indianapolis Center
08:01AM 40.8461 -84.6281 288° West 420 483 30,000  Level Indianapolis Center
08:02AM 40.8808 -84.7767 287° West 422 486 30,000  Level Indianapolis Center
08:03AM 40.9058 -84.8828 287° West 425 489 30,000  Level Chicago Center
08:04AM 40.9422 -85.0306 288° West 423 487 30,000  Level Chicago Center
08:05AM 40.9997 -85.1703 299° West 434 499 30,000 -840 Level Chicago Center
08:06AM 41.0897 -85.2756 319° Northwest 431 496 28,400 -1,320 Descending Chicago Center
08:07AM 41.2003 -85.3328 339° North 428 493 27,300 -1,080 Descending Chicago Center
08:08AM 41.3097 -85.3936 337° Northwest 426 490 26,200 -1,380 Descending Chicago Center
08:09AM 41.4317 -85.4708 335° Northwest 405 466 24,500 -1,080 Descending Chicago Center
08:10AM 41.4789 -85.6086 295° West 410 472 24,000 -300 Descending Chicago Center
08:11AM 41.4950 -85.7569 278° West 402 463 24,000 -1,200 Level Chicago Center
08:12AM 41.5114 -85.9042 279° West 401 461 21,600 -2,820 Descending Chicago Center
08:13AM 41.5256 -86.0528 277° West 402 463 18,300 -3,180 Descending Chicago Center
08:14AM 41.5228 -86.1942 269° West 386 444 15,100 -3,000 Descending Chicago Center
08:15AM 41.5228 -86.3297 270° West 369 425 12,100 -2,340 Descending Chicago Center
08:16AM 41.5214 -86.4594 269° West 353 406 10,300 -1,020 Descending Chicago Center
08:18AM 41.5208 -86.6167 270° West 354 407 10,000 -180 Descending Chicago Center
08:19AM 41.5206 -86.7339 270° West 352 405 10,000 -300 Level Chicago Center
08:20AM 41.5303 -86.8564 276° West 346 398 9,500 -1,020 Descending Chicago Center
08:21AM 41.5167 -86.9808 262° West 288 331 8,000 -1,380 Descending Chicago Center
08:22AM 41.5169 -87.0869 270° West 287 330 6,700 -1,020 Descending Chicago Center
08:23AM 41.5197 -87.1867 272° West 276 318 5,900 -420 Descending Chicago Center
08:24AM 41.5256 -87.2864 275° West 271 312 5,900  Level Chicago Center
08:25AM 41.5350 -87.3853 277° West 271 312 5,900 -180 Level Chicago Center
08:26AM 41.5561 -87.5172 282° West 269 310 5,500 -840 Descending Chicago Center
08:27AM 41.6200 -87.5356 348° North 257 296 4,100 -900 Descending Chicago Center
08:28AM 41.6683 -87.5858 322° Northwest 228 262 3,700 -660 Descending Chicago Center
08:29AM 41.7044 -87.6383 313° West 211 243 2,800 -960 Descending Chicago Center
08:30AM 41.7375 -87.6861 313° West 194 223 1,800 -660 Descending Chicago Center
08:31AM 41.7847 -87.7064 342° North 166 191 1,500 -300 Descending Chicago Center
08:32AM 41.8222 -87.7181 347° North 162 186 1,300 -240 Descending Chicago Center
08:34AM 41.7833 -87.7500 217° Southwest  Level FlightAware Approximate